createdAt,value
2023-05-15T00:04:31.317Z,15.69
2023-05-15T00:09:36.955Z,15.58
2023-05-15T00:14:42.606Z,15.48
2023-05-15T00:19:48.316Z,15.41
2023-05-15T00:24:54.188Z,15.30
2023-05-15T00:29:59.701Z,15.15
2023-05-15T00:35:05.883Z,15.08
2023-05-15T00:40:13.879Z,14.94
2023-05-15T00:45:20.835Z,14.93
2023-05-15T00:50:26.609Z,14.86
2023-05-15T00:55:33.812Z,14.74
2023-05-15T01:00:40.099Z,14.72
2023-05-15T01:05:46.182Z,14.67
2023-05-15T01:10:53.837Z,14.59
2023-05-15T01:16:00.331Z,14.54
2023-05-15T01:21:15.056Z,14.40
2023-05-15T01:26:35.667Z,14.34
2023-05-15T01:31:43.708Z,14.21
2023-05-15T01:36:52.257Z,14.14
2023-05-15T01:42:01.029Z,14.02
2023-05-15T01:47:09.562Z,13.96
2023-05-15T01:52:20.864Z,13.85
2023-05-15T01:57:29.217Z,13.86
2023-05-15T02:02:35.305Z,13.84
2023-05-15T02:07:42.783Z,13.84
2023-05-15T02:12:49.488Z,13.81
2023-05-15T02:17:55.367Z,13.84
2023-05-15T02:23:00.980Z,13.77
2023-05-15T02:28:09.646Z,13.81
2023-05-15T02:33:21.098Z,13.78
2023-05-15T02:38:32.431Z,13.92
2023-05-15T02:43:39.618Z,13.95
2023-05-15T02:48:45.705Z,14.03
2023-05-15T02:53:51.748Z,14.09
2023-05-15T02:58:57.460Z,14.14
2023-05-15T03:04:03.038Z,14.11
2023-05-15T03:09:08.705Z,14.13
2023-05-15T03:14:14.795Z,14.27
2023-05-15T03:19:20.367Z,14.08
2023-05-15T03:24:26.008Z,14.00
2023-05-15T03:29:31.505Z,14.01
2023-05-15T03:34:38.758Z,14.00
2023-05-15T03:39:44.692Z,14.07
2023-05-15T03:44:52.148Z,14.11
2023-05-15T03:49:57.649Z,14.13
2023-05-15T03:55:03.330Z,14.16
2023-05-15T04:00:11.296Z,14.18
2023-05-15T04:05:21.880Z,14.20
2023-05-15T04:10:27.561Z,14.26
2023-05-15T04:15:33.300Z,14.34
2023-05-15T04:20:38.918Z,14.45
2023-05-15T04:25:46.064Z,14.52
2023-05-15T04:30:52.637Z,14.58
2023-05-15T04:35:58.638Z,14.64
2023-05-15T04:41:04.121Z,14.72
2023-05-15T04:46:09.578Z,14.87
2023-05-15T04:51:15.071Z,14.98
2023-05-15T04:56:21.567Z,15.05
2023-05-15T05:01:27.429Z,15.12
2023-05-15T05:06:32.897Z,15.10
2023-05-15T05:11:39.802Z,15.07
2023-05-15T05:16:48.141Z,15.09
2023-05-15T05:21:53.580Z,15.16
2023-05-15T05:27:00.357Z,15.29
2023-05-15T05:32:07.111Z,15.39
2023-05-15T05:37:12.657Z,15.51
2023-05-15T05:42:18.092Z,15.65
2023-05-15T05:47:23.767Z,15.73
2023-05-15T05:52:29.560Z,15.82
2023-05-15T05:57:35.352Z,15.96
2023-05-15T06:02:41.661Z,16.07
2023-05-15T06:07:48.011Z,16.16
2023-05-15T06:12:53.442Z,15.88
2023-05-15T06:17:58.900Z,15.95
2023-05-15T06:23:04.461Z,15.84
2023-05-15T06:28:10.103Z,15.71
2023-05-15T06:33:15.643Z,15.61
2023-05-15T06:38:21.280Z,15.91
2023-05-15T06:43:27.805Z,16.10
2023-05-15T06:48:33.322Z,16.25
2023-05-15T06:53:39.899Z,16.45
2023-05-15T06:58:45.740Z,16.71
2023-05-15T07:03:51.406Z,16.70
2023-05-15T07:08:56.876Z,16.83
2023-05-15T07:14:02.503Z,17.04
2023-05-15T07:19:10.148Z,17.10
2023-05-15T07:24:15.978Z,17.32
2023-05-15T07:29:21.809Z,17.43
2023-05-15T07:34:27.314Z,17.42
2023-05-15T07:39:32.765Z,17.51
2023-05-15T07:44:38.332Z,17.73
2023-05-15T07:49:43.965Z,17.98
2023-05-15T07:54:49.571Z,17.93
2023-05-15T07:59:55.803Z,18.11
2023-05-15T08:05:01.236Z,18.15
2023-05-15T08:10:07.868Z,18.27
2023-05-15T08:15:13.889Z,18.32
2023-05-15T08:20:19.334Z,18.54
2023-05-15T08:25:25.123Z,18.70
2023-05-15T08:30:31.113Z,18.73
2023-05-15T08:35:36.821Z,19.01
2023-05-15T08:40:45.068Z,19.12
2023-05-15T08:45:51.220Z,19.60
2023-05-15T08:50:58.807Z,19.57
2023-05-15T08:56:06.126Z,20.02
2023-05-15T09:01:13.815Z,20.11
2023-05-15T09:06:20.227Z,20.26
2023-05-15T09:11:26.905Z,20.45
2023-05-15T09:16:32.516Z,20.70
2023-05-15T09:21:38.059Z,20.84
2023-05-15T09:26:44.504Z,21.01
2023-05-15T09:31:50.883Z,21.20
2023-05-15T09:36:56.728Z,21.27
2023-05-15T09:42:09.855Z,21.36
2023-05-15T09:47:18.000Z,21.19
2023-05-15T09:52:23.793Z,21.29
2023-05-15T09:57:29.307Z,21.56
2023-05-15T10:02:35.458Z,21.39
2023-05-15T10:07:41.049Z,21.29
2023-05-15T10:12:48.898Z,21.27
2023-05-15T10:17:55.524Z,21.35
2023-05-15T10:23:03.497Z,21.38
2023-05-15T10:28:13.619Z,21.11
2023-05-15T10:33:20.836Z,21.16
2023-05-15T10:38:28.813Z,21.27
2023-05-15T10:43:36.304Z,21.36
2023-05-15T10:48:42.787Z,21.34
2023-05-15T10:53:50.239Z,21.48
2023-05-15T10:58:57.169Z,21.63
2023-05-15T11:04:16.869Z,21.58
2023-05-15T11:09:36.336Z,21.50
2023-05-15T11:14:44.541Z,21.56
2023-05-15T11:19:57.940Z,21.56
2023-05-15T11:25:16.147Z,21.46
2023-05-15T11:30:25.347Z,21.34
2023-05-15T11:35:47.256Z,21.07
2023-05-15T11:41:02.355Z,20.76
2023-05-15T11:46:13.009Z,20.30
2023-05-15T11:51:27.674Z,20.01
2023-05-15T11:56:55.761Z,20.24
2023-05-15T12:02:07.352Z,20.46
2023-05-15T12:07:54.251Z,20.85
2023-05-15T12:13:40.043Z,20.65
2023-05-15T12:18:48.598Z,20.71
2023-05-15T12:24:15.074Z,20.74
2023-05-15T12:29:45.948Z,20.78
2023-05-15T12:34:51.804Z,20.73
2023-05-15T12:40:00.324Z,20.71
2023-05-15T12:45:08.992Z,20.73
2023-05-15T12:50:20.646Z,20.61
2023-05-15T12:55:33.583Z,20.73
2023-05-15T13:00:43.336Z,20.79
2023-05-15T13:05:49.290Z,20.89
2023-05-15T13:11:01.256Z,20.60
2023-05-15T13:16:09.613Z,20.47
2023-05-15T13:21:14.864Z,20.38
2023-05-15T13:26:20.961Z,20.25
2023-05-15T13:31:27.325Z,20.11
2023-05-15T13:36:33.062Z,20.20
2023-05-15T13:41:38.739Z,20.09
2023-05-15T13:46:44.797Z,19.96
2023-05-15T13:51:50.376Z,19.75
2023-05-15T13:56:55.842Z,18.39
2023-05-15T14:02:01.528Z,19.30
2023-05-15T14:07:07.143Z,19.13
2023-05-15T14:12:12.672Z,18.98
2023-05-15T14:17:18.720Z,18.82
2023-05-15T14:22:25.243Z,18.75
2023-05-15T14:27:31.192Z,18.80
2023-05-15T14:32:36.737Z,18.86
2023-05-15T14:37:43.491Z,18.91
2023-05-15T14:42:48.986Z,18.80
2023-05-15T14:47:54.654Z,18.84
2023-05-15T14:53:00.241Z,19.06
2023-05-15T14:58:05.891Z,19.08
2023-05-15T15:03:12.057Z,19.32
2023-05-15T15:08:17.747Z,19.35
2023-05-15T15:13:24.265Z,19.48
2023-05-15T15:18:29.870Z,19.55
2023-05-15T15:23:35.967Z,19.45
2023-05-15T15:28:41.611Z,19.45
2023-05-15T15:33:47.068Z,19.37
2023-05-15T15:38:52.943Z,19.34
2023-05-15T15:43:58.828Z,19.22
2023-05-15T15:49:05.982Z,19.12
2023-05-15T15:54:11.772Z,19.04
2023-05-15T15:59:17.372Z,18.92
2023-05-15T16:04:23.182Z,18.91
2023-05-15T16:09:28.692Z,19.04
2023-05-15T16:14:34.223Z,19.06
2023-05-15T16:19:39.659Z,18.74
2023-05-15T16:24:45.180Z,18.24
2023-05-15T16:29:50.708Z,18.11
2023-05-15T16:34:56.408Z,18.03
2023-05-15T16:40:01.978Z,17.97
2023-05-15T16:45:08.767Z,17.94
2023-05-15T16:50:14.351Z,18.05
2023-05-15T16:55:20.541Z,18.01
2023-05-15T17:00:26.348Z,17.79
2023-05-15T17:05:32.161Z,17.70
2023-05-15T17:10:38.132Z,17.60
2023-05-15T17:15:44.056Z,17.59
2023-05-15T17:20:49.588Z,17.45
2023-05-15T17:25:55.100Z,17.45
2023-05-15T17:31:00.700Z,17.31
2023-05-15T17:36:06.530Z,17.17
2023-05-15T17:41:12.283Z,17.32
2023-05-15T17:46:20.937Z,17.36
2023-05-15T17:51:26.377Z,17.40
2023-05-15T17:56:32.554Z,17.31
2023-05-15T18:01:38.350Z,17.38
2023-05-15T18:06:43.997Z,17.30
2023-05-15T18:11:49.460Z,17.21
2023-05-15T18:16:56.341Z,17.35
2023-05-15T18:22:03.568Z,17.24
2023-05-15T18:27:09.904Z,17.24
2023-05-15T18:32:15.735Z,17.22
2023-05-15T18:37:21.823Z,17.22
2023-05-15T18:42:28.686Z,17.20
2023-05-15T18:47:34.202Z,16.94
2023-05-15T18:52:39.878Z,16.98
2023-05-15T18:57:45.727Z,16.90
2023-05-15T19:02:51.249Z,16.79
2023-05-15T19:07:56.811Z,16.73
2023-05-15T19:13:02.412Z,16.63
2023-05-15T19:18:08.124Z,16.53
2023-05-15T19:23:14.048Z,16.52
2023-05-15T19:28:19.901Z,16.32
2023-05-15T19:33:25.511Z,16.05
